Time;durP1;ratioP1;P1;durP2;ratioP2;P2;SDS_P1;SDS_P2;PMS_P1;PMS_P2;Temp;Humidity;BMP_temperature;BMP_pressure;BME280_temperature;BME280_humidity;BME280_pressure;Samples;Min_cycle;Max_cycle;Signal;HPM_P1;HPM_P2
2021/11/30 00:00:15;;;;;;;14.98;9.07;;;1.30;99.90;;;;;;5010328;28;20033;-49
2021/11/30 00:02:40;;;;;;;14.70;10.45;;;1.30;99.90;;;;;;5026481;28;20043;-48
2021/11/30 00:05:12;;;;;;;13.30;9.55;;;1.30;99.90;;;;;;5009366;28;20029;-50
2021/11/30 00:07:38;;;;;;;15.68;10.20;;;1.30;99.90;;;;;;5016798;28;20037;-55
2021/11/30 00:12:34;;;;;;;15.68;10.98;;;1.40;99.90;;;;;;5015320;28;20493;-50
2021/11/30 00:15:00;;;;;;;18.20;11.80;;;1.40;99.90;;;;;;5028838;28;20026;-50
2021/11/30 00:17:26;;;;;;;18.35;10.82;;;1.40;99.90;;;;;;5027548;28;20076;-54
2021/11/30 00:19:52;;;;;;;16.48;11.23;;;1.40;99.90;;;;;;5029008;28;20405;-51
2021/11/30 00:22:21;;;;;;;17.42;11.55;;;1.50;99.90;;;;;;5012477;28;20068;-50
2021/11/30 00:24:47;;;;;;;18.08;12.27;;;1.50;99.90;;;;;;5028014;28;20041;-49
2021/11/30 00:27:13;;;;;;;19.15;12.18;;;1.50;99.90;;;;;;5014032;28;20120;-48
2021/11/30 00:29:39;;;;;;;17.60;11.77;;;1.60;99.90;;;;;;5009369;28;20022;-47
2021/11/30 00:32:06;;;;;;;20.85;12.68;;;1.60;99.90;;;;;;5010524;28;20029;-50
2021/11/30 00:34:32;;;;;;;20.55;12.93;;;1.60;99.90;;;;;;5014914;28;20033;-48
2021/11/30 00:36:58;;;;;;;20.73;12.48;;;1.60;99.90;;;;;;5029468;28;20443;-47
2021/11/30 00:39:24;;;;;;;17.05;11.98;;;1.60;99.90;;;;;;5025164;28;20026;-48
2021/11/30 00:41:55;;;;;;;19.77;12.55;;;1.60;99.90;;;;;;5013334;28;20394;-49
2021/11/30 00:44:24;;;;;;;21.65;12.68;;;1.60;99.90;;;;;;5013021;28;20022;-52
2021/11/30 00:46:53;;;;;;;17.35;12.57;;;1.60;99.90;;;;;;5012780;28;20030;-47
2021/11/30 00:49:20;;;;;;;18.58;12.50;;;1.70;99.90;;;;;;5025350;28;20037;-53
2021/11/30 00:51:46;;;;;;;21.08;12.73;;;1.70;99.90;;;;;;5019343;28;20048;-48
2021/11/30 00:54:14;;;;;;;19.90;12.35;;;1.60;99.90;;;;;;5013862;28;20034;-50
2021/11/30 00:56:44;;;;;;;15.18;11.43;;;1.70;99.90;;;;;;5012849;28;20542;-48
2021/11/30 00:59:10;;;;;;;17.65;12.30;;;1.60;99.90;;;;;;5016347;28;20587;-50
2021/11/30 01:01:38;;;;;;;19.20;12.77;;;1.70;99.90;;;;;;5032370;28;20037;-48
2021/11/30 01:04:05;;;;;;;17.42;11.93;;;1.70;99.90;;;;;;5019028;28;20068;-48
2021/11/30 01:06:31;;;;;;;18.13;11.43;;;1.70;99.90;;;;;;5020505;28;20519;-47
2021/11/30 01:08:56;;;;;;;19.23;11.82;;;1.70;99.90;;;;;;5031254;28;20042;-50
2021/11/30 01:11:22;;;;;;;16.70;11.70;;;1.70;99.90;;;;;;5030270;28;20026;-50
2021/11/30 01:13:48;;;;;;;14.57;11.15;;;1.70;99.90;;;;;;5018326;28;20065;-48
2021/11/30 01:16:13;;;;;;;17.50;12.32;;;1.80;99.90;;;;;;5018821;28;20075;-55
2021/11/30 01:18:39;;;;;;;22.48;13.30;;;1.80;99.90;;;;;;5016603;28;20099;-47
2021/11/30 01:21:05;;;;;;;19.60;11.77;;;1.80;99.90;;;;;;5012694;28;20383;-51
2021/11/30 01:23:31;;;;;;;21.52;14.05;;;1.80;99.90;;;;;;5013991;28;20042;-48
2021/11/30 01:25:59;;;;;;;18.80;12.82;;;1.80;99.90;;;;;;5012419;28;20030;-50
2021/11/30 01:28:25;;;;;;;21.38;13.23;;;1.80;99.90;;;;;;5021750;28;20057;-51
2021/11/30 01:30:51;;;;;;;20.63;13.77;;;1.80;99.90;;;;;;5018629;28;20064;-50
2021/11/30 01:33:16;;;;;;;21.25;13.77;;;1.90;99.90;;;;;;5031626;28;20088;-48
2021/11/30 01:35:44;;;;;;;21.23;13.90;;;1.90;99.90;;;;;;5031061;28;20029;-52
2021/11/30 01:38:11;;;;;;;20.20;13.45;;;2.00;99.90;;;;;;5031207;28;20065;-54
2021/11/30 01:40:37;;;;;;;21.30;14.10;;;2.00;99.90;;;;;;5029142;28;20037;-50
2021/11/30 01:43:05;;;;;;;20.67;13.75;;;2.00;99.90;;;;;;5031463;28;20029;-49
2021/11/30 01:45:45;;;;;;;20.08;13.57;;;2.10;99.90;;;;;;5023625;28;20402;-47
2021/11/30 01:50:39;;;;;;;19.92;13.30;;;2.20;99.90;;;;;;5028783;28;20037;-51
2021/11/30 01:53:06;;;;;;;16.52;12.95;;;2.20;99.90;;;;;;5030126;28;20053;-47
2021/11/30 01:55:32;;;;;;;21.45;13.90;;;2.30;99.90;;;;;;5019835;28;20021;-48
2021/11/30 01:58:02;;;;;;;22.55;14.27;;;2.30;99.90;;;;;;5037445;28;20389;-51
2021/11/30 02:00:30;;;;;;;19.52;13.55;;;2.30;99.90;;;;;;5034855;28;20041;-49
2021/11/30 02:02:56;;;;;;;16.63;12.48;;;2.30;99.90;;;;;;5011311;28;20029;-50
2021/11/30 02:05:21;;;;;;;16.50;11.52;;;2.40;99.90;;;;;;5030162;28;20037;-50
2021/11/30 02:07:47;;;;;;;16.98;11.57;;;2.40;99.90;;;;;;5027959;28;20124;-52
2021/11/30 02:10:14;;;;;;;13.60;10.90;;;2.40;99.90;;;;;;5019965;28;20032;-47
2021/11/30 02:12:41;;;;;;;17.27;11.30;;;2.40;99.90;;;;;;5014302;28;20505;-50
2021/11/30 02:15:09;;;;;;;16.38;10.68;;;2.40;99.90;;;;;;5030659;28;20029;-53
2021/11/30 02:17:35;;;;;;;13.98;10.32;;;2.40;99.90;;;;;;5016846;28;20029;-49
2021/11/30 02:20:03;;;;;;;17.88;11.57;;;2.40;99.90;;;;;;5011054;28;20112;-53
2021/11/30 02:22:28;;;;;;;13.73;10.35;;;2.40;99.90;;;;;;5010932;28;20030;-49
2021/11/30 02:24:54;;;;;;;15.10;10.07;;;2.40;99.90;;;;;;5010020;28;20500;-51
2021/11/30 02:27:21;;;;;;;16.65;10.57;;;2.30;99.90;;;;;;5024517;28;20037;-51
2021/11/30 02:29:47;;;;;;;16.33;11.35;;;2.30;99.90;;;;;;5030099;28;20044;-50
2021/11/30 02:32:14;;;;;;;14.85;11.45;;;2.40;99.90;;;;;;5030291;28;20096;-54
2021/11/30 02:34:40;;;;;;;15.88;11.82;;;2.40;99.90;;;;;;5028658;28;20519;-53
2021/11/30 02:37:07;;;;;;;14.00;11.20;;;2.40;99.90;;;;;;5029888;28;20025;-54
2021/11/30 02:39:35;;;;;;;14.75;11.30;;;2.40;99.90;;;;;;5030016;28;20561;-48
2021/11/30 02:42:04;;;;;;;15.43;11.25;;;2.40;99.90;;;;;;5019219;28;20025;-53
2021/11/30 02:44:31;;;;;;;13.00;10.20;;;2.40;99.90;;;;;;5009895;28;20026;-53
2021/11/30 02:46:59;;;;;;;14.05;9.80;;;2.40;99.90;;;;;;5009519;28;20569;-50
2021/11/30 02:49:31;;;;;;;14.05;10.73;;;2.40;99.90;;;;;;5015902;28;20536;-52
2021/11/30 02:52:09;;;;;;;14.85;9.82;;;2.40;99.90;;;;;;5010373;28;20414;-53
2021/11/30 02:54:38;;;;;;;13.40;9.85;;;2.40;99.90;;;;;;5008897;28;20513;-51
2021/11/30 02:57:06;;;;;;;12.15;9.70;;;2.40;99.90;;;;;;5019800;28;20026;-51
2021/11/30 02:59:38;;;;;;;12.77;9.38;;;2.40;99.90;;;;;;5010918;28;20056;-49
2021/11/30 03:02:13;;;;;;;11.32;9.63;;;2.40;99.90;;;;;;5011187;28;20032;-49
2021/11/30 03:04:43;;;;;;;15.07;10.05;;;2.50;99.90;;;;;;5029316;28;20455;-48
2021/11/30 03:07:12;;;;;;;10.73;9.02;;;2.50;99.90;;;;;;5029306;28;20140;-55
2021/11/30 03:09:39;;;;;;;15.20;10.32;;;2.50;99.90;;;;;;5022234;28;20536;-50
2021/11/30 03:12:05;;;;;;;13.77;8.93;;;2.50;99.90;;;;;;5020042;28;20022;-48
2021/11/30 03:14:30;;;;;;;13.20;9.77;;;2.50;99.90;;;;;;5029011;28;20026;-50
2021/11/30 03:16:57;;;;;;;11.90;9.05;;;2.50;99.90;;;;;;5029538;28;20084;-51
2021/11/30 03:19:23;;;;;;;11.07;8.77;;;2.50;99.90;;;;;;5029510;28;20075;-47
2021/11/30 03:21:48;;;;;;;10.98;8.85;;;2.60;99.90;;;;;;5027757;28;20342;-49
2021/11/30 03:24:15;;;;;;;10.50;7.97;;;2.50;99.90;;;;;;5009744;28;20026;-51
2021/11/30 03:26:40;;;;;;;10.55;7.93;;;2.60;99.90;;;;;;5010752;28;20034;-49
2021/11/30 03:29:06;;;;;;;13.93;7.53;;;2.50;99.90;;;;;;5027721;28;20046;-49
2021/11/30 03:34:03;;;;;;;9.32;7.38;;;2.60;99.90;;;;;;5028997;28;20026;-54
2021/11/30 03:36:30;;;;;;;8.10;7.28;;;2.50;99.90;;;;;;5029156;28;20053;-50
2021/11/30 03:38:57;;;;;;;7.93;7.13;;;2.60;99.90;;;;;;5009459;28;20030;-51
2021/11/30 03:41:23;;;;;;;10.07;7.78;;;2.50;99.90;;;;;;5008633;28;20026;-51
2021/11/30 03:43:49;;;;;;;7.47;6.68;;;2.60;99.90;;;;;;5026437;28;20026;-48
2021/11/30 03:46:16;;;;;;;11.07;8.15;;;2.60;99.90;;;;;;5029482;28;20025;-47
2021/11/30 03:48:41;;;;;;;9.65;8.52;;;2.50;99.90;;;;;;5029059;28;20037;-47
2021/11/30 03:51:07;;;;;;;8.90;7.95;;;2.50;99.90;;;;;;5026419;28;20040;-52
2021/11/30 03:53:32;;;;;;;9.15;7.80;;;2.60;99.90;;;;;;5009107;28;20030;-53
2021/11/30 03:55:58;;;;;;;9.65;8.38;;;2.60;99.90;;;;;;5009530;28;20559;-53
2021/11/30 03:58:24;;;;;;;8.30;7.50;;;2.50;99.90;;;;;;5009297;28;20038;-47
2021/11/30 04:00:49;;;;;;;9.65;7.45;;;2.50;99.90;;;;;;5009626;28;20080;-52
2021/11/30 04:03:15;;;;;;;9.88;8.15;;;2.60;99.90;;;;;;5024972;28;20021;-50
2021/11/30 04:05:40;;;;;;;8.85;7.95;;;2.60;99.90;;;;;;5018687;28;20034;-53
2021/11/30 04:08:06;;;;;;;9.75;7.28;;;2.60;99.90;;;;;;5007726;28;20044;-51
2021/11/30 04:10:32;;;;;;;9.75;7.75;;;2.60;99.90;;;;;;5013658;28;20049;-51
2021/11/30 04:12:58;;;;;;;9.68;8.05;;;2.60;99.90;;;;;;5013303;28;20026;-48
2021/11/30 04:15:24;;;;;;;11.02;7.72;;;2.60;99.90;;;;;;5013067;28;20509;-47
2021/11/30 04:17:50;;;;;;;7.85;6.63;;;2.60;99.90;;;;;;5013234;28;20038;-49
2021/11/30 04:20:15;;;;;;;9.18;6.90;;;2.60;99.90;;;;;;5014362;28;20034;-51
2021/11/30 04:22:42;;;;;;;8.75;7.15;;;2.60;99.90;;;;;;5013763;28;20091;-52
2021/11/30 04:25:09;;;;;;;7.25;6.47;;;2.60;99.90;;;;;;5012787;28;20041;-52
2021/11/30 04:27:35;;;;;;;7.05;6.35;;;2.60;99.90;;;;;;5012587;28;20030;-47
2021/11/30 04:30:02;;;;;;;8.82;7.93;;;2.50;99.90;;;;;;5013768;28;20077;-51
2021/11/30 04:32:27;;;;;;;8.60;7.65;;;2.50;99.90;;;;;;5027540;28;20609;-53
2021/11/30 04:34:53;;;;;;;7.50;6.70;;;2.60;99.90;;;;;;5022848;28;20030;-51
2021/11/30 04:37:19;;;;;;;8.50;6.53;;;2.60;99.90;;;;;;5010916;28;20026;-53
2021/11/30 04:39:44;;;;;;;8.25;7.28;;;2.60;99.90;;;;;;5012472;28;20061;-48
2021/11/30 04:42:10;;;;;;;10.35;7.78;;;2.60;99.90;;;;;;5013628;28;20014;-51
2021/11/30 04:44:38;;;;;;;7.85;6.60;;;2.70;99.90;;;;;;5030655;28;20381;-47
2021/11/30 04:47:09;;;;;;;8.65;6.88;;;2.70;99.90;;;;;;5030722;28;20017;-47
2021/11/30 04:52:02;;;;;;;9.70;8.60;;;2.70;99.90;;;;;;5031657;28;20033;-50
2021/11/30 04:54:27;;;;;;;8.80;7.78;;;2.70;99.90;;;;;;5021748;28;20036;-51
2021/11/30 04:56:53;;;;;;;8.95;8.05;;;2.70;99.90;;;;;;5023881;28;20104;-49
2021/11/30 04:59:20;;;;;;;10.55;7.75;;;2.70;99.90;;;;;;5031260;28;20687;-50
2021/11/30 05:01:47;;;;;;;9.25;8.13;;;2.80;99.90;;;;;;5018073;28;20112;-52
2021/11/30 05:04:14;;;;;;;11.05;8.40;;;2.80;99.90;;;;;;5016279;28;20029;-55
2021/11/30 05:06:40;;;;;;;10.95;8.50;;;2.90;99.90;;;;;;5017902;28;20109;-51
2021/11/30 05:09:07;;;;;;;9.38;8.48;;;2.90;99.90;;;;;;5011446;28;20030;-49
2021/11/30 05:11:33;;;;;;;8.75;7.88;;;2.90;99.90;;;;;;5011133;28;20029;-55
2021/11/30 05:13:59;;;;;;;8.35;7.55;;;2.90;99.90;;;;;;5011095;28;20029;-51
2021/11/30 05:16:25;;;;;;;10.13;8.93;;;3.00;99.90;;;;;;5020127;28;20101;-52
2021/11/30 05:18:50;;;;;;;9.57;8.65;;;3.00;99.90;;;;;;5030195;28;20040;-52
2021/11/30 05:21:16;;;;;;;10.43;8.55;;;3.00;99.90;;;;;;5027845;28;20025;-50
2021/11/30 05:23:42;;;;;;;9.38;8.30;;;3.00;99.90;;;;;;5029505;28;20030;-50
2021/11/30 05:26:08;;;;;;;10.75;9.43;;;3.10;99.90;;;;;;5030707;28;20026;-54
2021/11/30 05:28:36;;;;;;;10.75;9.27;;;3.10;99.90;;;;;;5028377;28;20616;-53
2021/11/30 05:31:04;;;;;;;10.63;9.32;;;3.10;99.90;;;;;;5012552;28;20107;-49
2021/11/30 05:33:31;;;;;;;11.18;9.40;;;3.20;99.90;;;;;;5013623;28;20025;-49
2021/11/30 05:35:58;;;;;;;10.50;9.20;;;3.20;99.90;;;;;;5029220;28;20029;-48
2021/11/30 05:38:24;;;;;;;11.20;9.75;;;3.20;99.90;;;;;;5028412;28;20429;-49
2021/11/30 05:40:50;;;;;;;8.55;7.75;;;3.30;99.90;;;;;;5011370;28;20025;-51
2021/11/30 05:43:16;;;;;;;8.13;7.22;;;3.30;99.90;;;;;;5010510;28;20109;-53
2021/11/30 05:45:42;;;;;;;9.90;8.68;;;3.40;99.90;;;;;;5011087;28;20030;-49
2021/11/30 05:48:10;;;;;;;9.70;7.60;;;3.40;99.90;;;;;;5016225;28;20032;-52
2021/11/30 05:50:36;;;;;;;8.45;7.43;;;3.40;99.90;;;;;;5030131;28;20091;-48
2021/11/30 05:53:03;;;;;;;9.95;8.18;;;3.50;99.90;;;;;;5028905;28;20022;-52
2021/11/30 05:55:29;;;;;;;9.13;8.00;;;3.50;99.90;;;;;;5028616;28;20045;-51
2021/11/30 05:57:55;;;;;;;8.27;7.10;;;3.50;99.90;;;;;;5020568;28;20535;-48
2021/11/30 06:00:20;;;;;;;10.90;7.50;;;3.50;99.90;;;;;;5009205;28;20030;-51
2021/11/30 06:03:04;;;;;;;6.90;6.20;;;3.60;99.90;;;;;;5012896;28;20038;-51
2021/11/30 06:05:32;;;;;;;7.45;6.75;;;3.60;99.90;;;;;;5029629;28;20025;-51
2021/11/30 06:07:59;;;;;;;7.10;6.18;;;3.70;99.90;;;;;;5029105;28;20509;-48
2021/11/30 06:10:25;;;;;;;6.78;6.07;;;3.70;99.90;;;;;;5022292;28;20018;-49
2021/11/30 06:12:51;;;;;;;6.72;5.88;;;3.70;99.90;;;;;;5023148;28;20519;-49
2021/11/30 06:15:19;;;;;;;6.22;5.60;;;3.80;99.90;;;;;;5012470;28;20128;-56
2021/11/30 06:17:45;;;;;;;6.25;5.63;;;3.80;99.90;;;;;;5023948;28;20042;-54
2021/11/30 06:20:11;;;;;;;6.32;5.50;;;3.90;99.90;;;;;;5029617;28;20109;-55
2021/11/30 06:22:37;;;;;;;5.68;5.10;;;3.90;99.90;;;;;;5029602;28;20037;-53
2021/11/30 06:25:05;;;;;;;7.55;5.90;;;3.90;99.90;;;;;;5026449;28;20039;-51
2021/11/30 06:27:31;;;;;;;7.70;5.97;;;4.00;99.90;;;;;;5010739;28;20084;-52
2021/11/30 06:29:57;;;;;;;7.47;5.65;;;4.00;99.90;;;;;;5010224;28;20028;-54
2021/11/30 06:32:23;;;;;;;7.60;6.05;;;4.00;99.90;;;;;;5024940;28;20041;-49
2021/11/30 06:34:49;;;;;;;5.10;4.57;;;4.10;99.90;;;;;;5026264;28;20037;-47
2021/11/30 06:37:15;;;;;;;7.15;5.35;;;4.10;99.90;;;;;;5010065;28;20033;-47
2021/11/30 06:39:41;;;;;;;5.22;4.45;;;4.20;99.90;;;;;;5011396;28;20026;-50
2021/11/30 06:42:07;;;;;;;7.25;4.93;;;4.20;99.90;;;;;;5018508;28;20102;-49
2021/11/30 06:44:34;;;;;;;6.43;5.10;;;4.20;99.90;;;;;;5010587;28;20026;-51
2021/11/30 06:47:04;;;;;;;6.90;5.00;;;4.20;99.90;;;;;;5020988;28;20473;-47
2021/11/30 06:49:30;;;;;;;6.13;4.82;;;4.30;99.90;;;;;;5029223;28;20040;-52
2021/11/30 06:51:55;;;;;;;5.53;4.97;;;4.30;99.90;;;;;;5024630;28;20038;-51
2021/11/30 06:54:21;;;;;;;6.65;5.00;;;4.30;99.90;;;;;;5010045;28;20030;-48
2021/11/30 06:56:47;;;;;;;10.38;5.45;;;4.40;99.90;;;;;;5019750;28;20124;-48
2021/11/30 06:59:12;;;;;;;7.43;5.60;;;4.40;99.90;;;;;;5009649;28;20460;-50
2021/11/30 07:01:38;;;;;;;6.15;5.53;;;4.50;99.90;;;;;;5010016;28;20402;-55
2021/11/30 07:04:05;;;;;;;9.23;5.40;;;4.50;99.90;;;;;;5009150;28;20453;-48
2021/11/30 07:06:41;;;;;;;8.93;5.30;;;4.60;99.90;;;;;;5009754;28;20124;-53
2021/11/30 07:09:19;;;;;;;10.18;5.70;;;4.60;99.90;;;;;;5009296;28;20034;-50
2021/11/30 07:14:10;;;;;;;12.13;5.10;;;4.70;99.90;;;;;;5029025;28;20041;-52
2021/11/30 07:16:36;;;;;;;8.73;4.75;;;4.70;99.90;;;;;;5028606;28;20116;-51
2021/11/30 07:19:02;;;;;;;7.97;4.80;;;4.80;99.90;;;;;;5028609;28;20107;-51
2021/11/30 07:21:28;;;;;;;9.55;4.65;;;4.80;99.90;;;;;;5028966;28;20030;-49
2021/11/30 07:23:55;;;;;;;8.10;4.18;;;4.80;99.90;;;;;;5028752;28;20425;-48
2021/11/30 07:26:20;;;;;;;9.25;4.68;;;4.90;99.90;;;;;;5021561;28;20079;-50
2021/11/30 07:28:46;;;;;;;8.35;4.32;;;4.90;99.90;;;;;;5015812;28;20037;-48
2021/11/30 07:31:13;;;;;;;10.30;3.00;;;4.90;99.90;;;;;;5028671;28;20636;-48
2021/11/30 07:33:43;;;;;;;9.93;3.13;;;4.90;99.90;;;;;;5022310;28;20088;-49
2021/11/30 07:36:10;;;;;;;13.90;2.85;;;4.90;99.90;;;;;;5008747;28;20028;-49
2021/11/30 07:38:36;;;;;;;12.85;2.30;;;5.00;99.90;;;;;;5013010;28;20030;-52
2021/11/30 07:41:02;;;;;;;10.45;3.00;;;5.00;99.90;;;;;;5021073;28;20033;-49
2021/11/30 07:43:28;;;;;;;20.80;3.05;;;5.00;99.90;;;;;;5008876;28;20034;-50
2021/11/30 07:45:54;;;;;;;10.65;2.50;;;4.90;99.90;;;;;;5008166;28;20091;-55
2021/11/30 07:48:21;;;;;;;10.70;2.35;;;5.00;99.90;;;;;;5016408;28;20113;-49
2021/11/30 07:50:47;;;;;;;10.35;2.28;;;4.90;99.90;;;;;;5017548;28;20029;-50
2021/11/30 07:53:13;;;;;;;16.35;2.38;;;5.00;99.90;;;;;;5027866;28;20681;-52
2021/11/30 07:55:39;;;;;;;16.38;2.53;;;5.00;99.90;;;;;;5028295;28;20105;-50
2021/11/30 07:58:06;;;;;;;18.70;2.88;;;5.00;99.90;;;;;;5027875;28;20022;-49
2021/11/30 08:00:32;;;;;;;17.27;4.15;;;5.10;99.90;;;;;;5028009;28;20043;-54
2021/11/30 08:02:57;;;;;;;19.25;3.78;;;5.10;99.90;;;;;;5028344;28;20467;-54
2021/11/30 08:05:23;;;;;;;13.07;2.75;;;5.10;99.90;;;;;;5028427;28;20025;-52
2021/11/30 08:07:49;;;;;;;11.82;2.58;;;5.10;99.90;;;;;;5027646;28;20060;-48
2021/11/30 08:10:17;;;;;;;14.15;2.72;;;5.20;99.90;;;;;;5029312;28;20036;-49
2021/11/30 08:12:43;;;;;;;15.45;4.25;;;5.20;99.90;;;;;;5028204;28;20037;-49
2021/11/30 08:15:11;;;;;;;13.10;3.30;;;5.20;99.90;;;;;;5026994;28;20028;-49
2021/11/30 08:17:38;;;;;;;13.52;2.55;;;5.20;99.90;;;;;;5028142;28;20029;-48
2021/11/30 08:20:05;;;;;;;22.90;3.33;;;5.20;99.90;;;;;;5028574;28;20053;-51
2021/11/30 08:22:31;;;;;;;15.80;2.95;;;5.20;99.90;;;;;;5027998;28;20048;-51
2021/11/30 08:24:57;;;;;;;13.15;2.63;;;5.30;99.90;;;;;;5027402;28;20113;-53
2021/11/30 08:27:22;;;;;;;18.27;3.78;;;5.30;99.90;;;;;;5028097;28;20084;-47
2021/11/30 08:29:50;;;;;;;11.25;3.40;;;5.30;99.90;;;;;;5011954;28;20235;-50
2021/11/30 08:32:19;;;;;;;22.45;2.97;;;5.40;99.90;;;;;;5008249;28;20517;-51
2021/11/30 08:34:45;;;;;;;17.10;3.85;;;5.30;99.90;;;;;;5019260;28;20041;-49
2021/11/30 08:37:11;;;;;;;14.52;3.17;;;5.40;99.90;;;;;;5019446;28;20521;-53
2021/11/30 08:39:38;;;;;;;27.38;3.55;;;5.40;99.90;;;;;;5016320;28;20033;-51
2021/11/30 08:42:07;;;;;;;14.98;3.53;;;5.40;99.90;;;;;;5017189;28;20045;-50
2021/11/30 08:44:32;;;;;;;12.27;2.75;;;5.40;99.90;;;;;;5027236;28;20112;-47
2021/11/30 08:46:58;;;;;;;16.02;3.63;;;5.40;99.90;;;;;;5027934;28;20112;-49
2021/11/30 08:49:26;;;;;;;7.28;1.95;;;5.30;99.90;;;;;;5025526;28;20025;-50
2021/11/30 08:51:52;;;;;;;8.70;2.40;;;5.30;99.90;;;;;;5027792;28;20022;-51
2021/11/30 08:54:18;;;;;;;11.45;2.50;;;5.30;99.90;;;;;;5026057;28;20026;-50
2021/11/30 08:56:44;;;;;;;10.02;2.53;;;5.20;99.90;;;;;;5023297;28;20086;-49
2021/11/30 08:59:11;;;;;;;17.50;2.65;;;5.20;99.90;;;;;;5010999;28;20563;-51
2021/11/30 09:01:38;;;;;;;7.80;1.67;;;5.30;99.90;;;;;;5011501;28;20030;-49
2021/11/30 09:04:04;;;;;;;8.32;1.55;;;5.30;99.90;;;;;;5011528;28;20026;-52
2021/11/30 09:06:30;;;;;;;7.13;1.63;;;5.30;99.90;;;;;;5019634;28;20109;-51
2021/11/30 09:08:55;;;;;;;9.88;2.75;;;5.30;99.90;;;;;;5015628;28;20113;-47
2021/11/30 09:11:22;;;;;;;8.95;1.75;;;5.30;99.90;;;;;;5019427;28;20025;-48
2021/11/30 09:13:48;;;;;;;11.15;2.10;;;5.40;99.90;;;;;;5010965;28;20537;-50
2021/11/30 09:16:14;;;;;;;14.98;1.95;;;5.40;99.90;;;;;;5009530;28;20116;-55
2021/11/30 09:18:40;;;;;;;10.48;2.33;;;5.40;99.90;;;;;;5011170;28;20041;-55
2021/11/30 09:21:05;;;;;;;13.00;2.03;;;5.40;99.90;;;;;;5011191;28;20037;-48
2021/11/30 09:23:31;;;;;;;14.73;2.60;;;5.40;99.90;;;;;;5011259;28;20493;-48
2021/11/30 09:25:57;;;;;;;7.85;2.35;;;5.40;99.90;;;;;;5028691;28;20516;-50
2021/11/30 09:28:24;;;;;;;15.23;2.97;;;5.50;99.90;;;;;;5028258;28;20172;-48
2021/11/30 09:30:50;;;;;;;13.23;2.30;;;5.50;99.90;;;;;;5030339;28;20393;-51
2021/11/30 09:33:16;;;;;;;8.93;2.13;;;5.50;99.90;;;;;;5030266;28;20033;-47
2021/11/30 09:35:42;;;;;;;15.18;3.30;;;5.60;99.90;;;;;;5028811;28;20544;-50
2021/11/30 09:38:08;;;;;;;13.13;1.90;;;5.60;99.90;;;;;;5018313;28;20140;-51
2021/11/30 09:40:35;;;;;;;13.23;3.22;;;5.60;99.90;;;;;;5010502;28;20034;-47
2021/11/30 09:43:00;;;;;;;16.63;2.97;;;5.70;99.90;;;;;;5010846;28;20617;-47
2021/11/30 09:45:27;;;;;;;16.13;2.10;;;5.70;99.90;;;;;;5024884;28;20116;-56
2021/11/30 09:47:54;;;;;;;13.43;2.47;;;5.80;99.90;;;;;;5020952;28;20653;-51
2021/11/30 09:50:21;;;;;;;18.98;2.90;;;5.80;99.90;;;;;;5011103;28;20026;-49
2021/11/30 09:52:51;;;;;;;13.70;3.25;;;5.90;99.90;;;;;;5010518;28;20033;-50
2021/11/30 09:55:18;;;;;;;10.07;3.03;;;6.00;99.90;;;;;;5010938;28;20049;-49
2021/11/30 09:57:43;;;;;;;20.10;4.03;;;6.00;99.90;;;;;;5011499;28;20111;-51
2021/11/30 10:00:12;;;;;;;15.60;2.55;;;6.00;99.90;;;;;;5012659;28;20061;-52
2021/11/30 10:02:38;;;;;;;14.63;3.15;;;6.10;99.90;;;;;;5017958;28;20064;-48
2021/11/30 10:05:04;;;;;;;12.82;3.50;;;6.10;99.90;;;;;;5009254;28;20026;-51
2021/11/30 10:07:42;;;;;;;20.33;3.65;;;6.10;99.90;;;;;;5010648;28;20057;-51
2021/11/30 10:10:15;;;;;;;17.90;3.75;;;6.10;99.90;;;;;;5010783;28;20608;-47
2021/11/30 10:12:42;;;;;;;17.73;3.47;;;6.10;99.90;;;;;;5019118;28;20112;-47
2021/11/30 10:15:09;;;;;;;8.63;2.97;;;6.20;99.90;;;;;;5018255;28;20037;-50
2021/11/30 10:17:36;;;;;;;9.13;2.38;;;6.30;99.90;;;;;;5029601;28;20160;-50
2021/11/30 10:20:11;;;;;;;16.25;3.45;;;6.30;99.90;;;;;;5018972;28;20080;-50
2021/11/30 10:22:55;;;;;;;13.05;3.05;;;6.30;99.90;;;;;;5010329;28;20022;-51
2021/11/30 10:25:35;;;;;;;13.68;2.92;;;6.30;99.90;;;;;;5010200;28;20367;-52
2021/11/30 10:28:23;;;;;;;14.25;3.35;;;6.30;99.90;;;;;;5009649;28;20655;-51
2021/11/30 10:30:51;;;;;;;15.80;4.18;;;6.30;99.90;;;;;;5009707;28;20025;-50
2021/11/30 10:33:20;;;;;;;15.75;3.83;;;6.30;99.90;;;;;;5010550;28;20112;-54
2021/11/30 10:35:54;;;;;;;17.83;3.95;;;6.30;99.90;;;;;;5011684;28;20029;-55
2021/11/30 10:38:22;;;;;;;16.40;2.85;;;6.30;99.90;;;;;;5024172;28;20374;-51
2021/11/30 10:40:48;;;;;;;12.20;3.22;;;6.30;99.90;;;;;;5016725;28;20096;-53
2021/11/30 10:43:15;;;;;;;18.13;3.22;;;6.40;99.90;;;;;;5014978;28;20501;-49
2021/11/30 10:45:44;;;;;;;14.88;3.45;;;6.40;99.90;;;;;;5021058;28;20030;-52
2021/11/30 10:48:14;;;;;;;13.00;2.80;;;6.40;99.90;;;;;;5028769;28;20409;-47
2021/11/30 10:50:50;;;;;;;14.18;3.63;;;6.40;99.90;;;;;;5029525;28;20029;-52
2021/11/30 10:53:18;;;;;;;14.30;3.00;;;6.30;99.90;;;;;;5017306;28;20018;-51
2021/11/30 10:55:49;;;;;;;10.90;2.65;;;6.30;99.90;;;;;;5009591;28;20029;-52
2021/11/30 10:58:16;;;;;;;7.88;2.63;;;6.20;99.90;;;;;;5020384;28;20040;-54
2021/11/30 11:00:42;;;;;;;9.73;2.55;;;6.10;99.90;;;;;;5025746;28;20485;-50
2021/11/30 11:03:15;;;;;;;18.17;3.25;;;6.10;99.90;;;;;;5028358;28;20101;-48
2021/11/30 11:06:24;;;;;;;17.90;3.63;;;6.10;99.90;;;;;;5028927;28;20035;-49
2021/11/30 11:08:50;;;;;;;11.80;3.05;;;6.10;99.90;;;;;;5026936;28;20044;-51
2021/11/30 11:11:21;;;;;;;13.23;3.42;;;6.10;99.90;;;;;;5029086;28;20048;-52
2021/11/30 11:13:47;;;;;;;18.92;2.97;;;6.10;99.90;;;;;;5028637;28;20025;-50
2021/11/30 11:16:29;;;;;;;15.65;3.75;;;6.00;99.90;;;;;;5028991;28;20017;-49
2021/11/30 11:18:57;;;;;;;18.50;3.88;;;6.10;99.90;;;;;;5011477;28;20030;-47
2021/11/30 11:21:29;;;;;;;12.27;3.60;;;6.10;99.90;;;;;;5009156;28;20482;-47
2021/11/30 11:24:25;;;;;;;11.63;3.40;;;6.10;99.90;;;;;;5025618;28;20029;-47
2021/11/30 11:26:53;;;;;;;13.40;3.25;;;6.10;99.90;;;;;;5014777;28;20064;-51
2021/11/30 11:29:29;;;;;;;12.48;3.03;;;6.10;99.90;;;;;;5026640;28;20022;-51
2021/11/30 11:32:07;;;;;;;16.77;3.17;;;6.20;99.90;;;;;;5028582;28;20108;-50
2021/11/30 11:34:35;;;;;;;15.55;3.70;;;6.20;99.90;;;;;;5027341;28;20109;-53
2021/11/30 11:37:03;;;;;;;10.18;2.65;;;6.30;99.90;;;;;;5028629;28;20022;-54
2021/11/30 11:39:30;;;;;;;20.30;3.13;;;6.30;99.90;;;;;;5023669;28;20109;-55
2021/11/30 11:42:01;;;;;;;10.07;3.58;;;6.30;99.90;;;;;;5008639;28;20026;-47
2021/11/30 11:44:27;;;;;;;13.95;2.67;;;6.40;99.90;;;;;;5006660;28;20025;-54
2021/11/30 11:46:58;;;;;;;13.77;3.50;;;6.40;99.90;;;;;;5008829;28;20533;-57
2021/11/30 11:49:26;;;;;;;14.95;3.72;;;6.40;99.90;;;;;;5011430;28;20064;-47
2021/11/30 11:51:55;;;;;;;10.75;3.53;;;6.40;99.90;;;;;;5008547;28;20386;-49
2021/11/30 11:54:30;;;;;;;15.30;3.47;;;6.50;99.90;;;;;;5019104;28;20067;-53
2021/11/30 11:57:02;;;;;;;14.38;3.28;;;6.40;99.90;;;;;;5028126;28;20049;-47
2021/11/30 11:59:40;;;;;;;12.13;3.63;;;6.50;99.90;;;;;;5023308;28;20033;-53
2021/11/30 12:02:20;;;;;;;10.98;3.10;;;6.50;99.90;;;;;;5028432;28;20552;-53
2021/11/30 12:04:50;;;;;;;8.30;1.95;;;6.50;99.90;;;;;;5028367;28;20056;-51
2021/11/30 12:07:16;;;;;;;11.45;3.00;;;6.50;99.90;;;;;;5026822;28;20040;-48
2021/11/30 12:09:42;;;;;;;12.82;2.92;;;6.50;99.90;;;;;;5026232;28;20021;-51
2021/11/30 12:12:10;;;;;;;12.57;3.05;;;6.50;99.90;;;;;;5024032;28;20038;-50
2021/11/30 12:14:45;;;;;;;9.00;2.65;;;6.50;99.90;;;;;;5008327;28;20109;-52
2021/11/30 12:17:28;;;;;;;13.77;3.35;;;6.50;99.90;;;;;;5026569;28;20053;-50
2021/11/30 12:19:57;;;;;;;13.10;3.33;;;6.50;99.90;;;;;;5027816;28;20021;-58
2021/11/30 12:22:41;;;;;;;9.70;2.45;;;6.50;99.90;;;;;;5028039;28;20026;-54
2021/11/30 12:25:19;;;;;;;7.38;2.35;;;6.50;99.90;;;;;;5027551;28;20022;-52
2021/11/30 12:27:45;;;;;;;9.60;2.63;;;6.50;99.90;;;;;;5020255;28;20040;-49
2021/11/30 12:30:37;;;;;;;7.78;2.05;;;6.40;99.90;;;;;;5008345;28;20026;-55
2021/11/30 12:33:14;;;;;;;17.38;2.33;;;6.40;99.90;;;;;;5012490;28;20022;-50
2021/11/30 12:35:48;;;;;;;10.82;2.67;;;6.40;99.90;;;;;;5012155;28;20093;-56
2021/11/30 12:38:46;;;;;;;11.68;2.72;;;6.50;99.90;;;;;;5014658;28;20021;-47
2021/11/30 12:41:23;;;;;;;9.43;2.10;;;6.50;99.90;;;;;;5026043;28;20466;-54
2021/11/30 12:43:50;;;;;;;4.90;1.98;;;6.40;99.90;;;;;;5020975;28;20033;-50
2021/11/30 12:46:37;;;;;;;7.00;1.85;;;6.40;99.90;;;;;;5027300;28;20022;-51
2021/11/30 12:49:28;;;;;;;7.90;1.92;;;6.40;99.90;;;;;;5030901;28;20033;-52
2021/11/30 12:52:14;;;;;;;7.38;2.22;;;6.40;99.90;;;;;;5031477;28;20037;-49
2021/11/30 12:54:53;;;;;;;4.72;1.92;;;6.30;99.90;;;;;;5030726;28;20022;-50
2021/11/30 12:57:31;;;;;;;13.25;3.00;;;6.30;99.90;;;;;;5025886;28;20030;-51
2021/11/30 13:00:05;;;;;;;9.63;2.83;;;6.10;99.90;;;;;;5011756;28;20219;-53
2021/11/30 13:02:39;;;;;;;15.50;2.85;;;6.00;99.90;;;;;;5012001;28;20103;-50
2021/11/30 13:05:07;;;;;;;10.90;2.30;;;6.00;99.90;;;;;;5011770;28;20045;-51